sensor_id;sensor_type;location;lat;lon;timestamp;pressure;altitude;pressure_sealevel;temperature;humidity
37068;BME280;22982;42.848;25.468;2023-11-18T00:03:11;95435.28;;;7.12;100.00
37068;BME280;22982;42.848;25.468;2023-11-18T00:08:14;95419.09;;;7.21;100.00
37068;BME280;22982;42.848;25.468;2023-11-18T00:13:17;95412.38;;;7.17;100.00
37068;BME280;22982;42.848;25.468;2023-11-18T00:18:20;95425.97;;;7.07;100.00
37068;BME280;22982;42.848;25.468;2023-11-18T00:23:22;95432.56;;;6.99;100.00
37068;BME280;22982;42.848;25.468;2023-11-18T00:28:25;95452.94;;;6.78;100.00
37068;BME280;22982;42.848;25.468;2023-11-18T00:33:28;95466.63;;;6.81;100.00
37068;BME280;22982;42.848;25.468;2023-11-18T00:38:30;95445.13;;;6.78;100.00
37068;BME280;22982;42.848;25.468;2023-11-18T00:43:34;95451.41;;;6.74;100.00
37068;BME280;22982;42.848;25.468;2023-11-18T00:48:37;95463.75;;;6.56;100.00
37068;BME280;22982;42.848;25.468;2023-11-18T00:53:39;95491.63;;;6.69;100.00
37068;BME280;22982;42.848;25.468;2023-11-18T00:58:42;95487.28;;;6.54;100.00
37068;BME280;22982;42.848;25.468;2023-11-18T01:03:45;95459.97;;;6.61;100.00
37068;BME280;22982;42.848;25.468;2023-11-18T01:08:48;95463.66;;;6.57;100.00
37068;BME280;22982;42.848;25.468;2023-11-18T01:13:51;95442.66;;;6.60;100.00
37068;BME280;22982;42.848;25.468;2023-11-18T01:18:57;95460.31;;;6.55;100.00
37068;BME280;22982;42.848;25.468;2023-11-18T01:23:59;95469.91;;;6.55;100.00
37068;BME280;22982;42.848;25.468;2023-11-18T01:29:03;95444.41;;;6.29;100.00
37068;BME280;22982;42.848;25.468;2023-11-18T01:34:05;95427.28;;;6.25;100.00
37068;BME280;22982;42.848;25.468;2023-11-18T01:39:07;95443.22;;;6.19;100.00
37068;BME280;22982;42.848;25.468;2023-11-18T01:44:11;95434.50;;;6.20;100.00
37068;BME280;22982;42.848;25.468;2023-11-18T01:49:17;95433.34;;;6.10;100.00
37068;BME280;22982;42.848;25.468;2023-11-18T01:54:21;95434.53;;;6.04;100.00
37068;BME280;22982;42.848;25.468;2023-11-18T01:59:25;95424.78;;;6.08;100.00
37068;BME280;22982;42.848;25.468;2023-11-18T02:04:29;95446.44;;;6.08;100.00
37068;BME280;22982;42.848;25.468;2023-11-18T02:09:32;95431.41;;;5.98;100.00
37068;BME280;22982;42.848;25.468;2023-11-18T02:14:39;95460.03;;;5.98;100.00
37068;BME280;22982;42.848;25.468;2023-11-18T02:19:42;95469.75;;;5.94;100.00
37068;BME280;22982;42.848;25.468;2023-11-18T02:24:47;95467.91;;;5.80;100.00
37068;BME280;22982;42.848;25.468;2023-11-18T02:29:49;95452.47;;;5.77;100.00
37068;BME280;22982;42.848;25.468;2023-11-18T02:40:04;95476.13;;;5.88;100.00
37068;BME280;22982;42.848;25.468;2023-11-18T02:45:17;95466.75;;;5.86;100.00
37068;BME280;22982;42.848;25.468;2023-11-18T02:50:20;95478.03;;;5.69;100.00
37068;BME280;22982;42.848;25.468;2023-11-18T02:55:23;95475.97;;;5.75;100.00
37068;BME280;22982;42.848;25.468;2023-11-18T03:00:26;95459.28;;;5.64;100.00
37068;BME280;22982;42.848;25.468;2023-11-18T03:05:30;95444.06;;;5.56;100.00
37068;BME280;22982;42.848;25.468;2023-11-18T03:10:35;95423.75;;;5.47;100.00
37068;BME280;22982;42.848;25.468;2023-11-18T03:15:37;95433.25;;;5.48;100.00
37068;BME280;22982;42.848;25.468;2023-11-18T03:20:40;95431.56;;;5.63;100.00
37068;BME280;22982;42.848;25.468;2023-11-18T03:25:44;95424.78;;;5.44;100.00
37068;BME280;22982;42.848;25.468;2023-11-18T03:30:47;95430.56;;;5.49;100.00
37068;BME280;22982;42.848;25.468;2023-11-18T03:35:51;95435.84;;;5.48;100.00
37068;BME280;22982;42.848;25.468;2023-11-18T03:40:53;95435.16;;;5.44;100.00
37068;BME280;22982;42.848;25.468;2023-11-18T03:45:56;95425.06;;;5.38;100.00
37068;BME280;22982;42.848;25.468;2023-11-18T03:50:59;95416.22;;;5.42;100.00
37068;BME280;22982;42.848;25.468;2023-11-18T03:56:01;95411.31;;;5.36;100.00
37068;BME280;22982;42.848;25.468;2023-11-18T04:01:04;95387.75;;;5.23;100.00
37068;BME280;22982;42.848;25.468;2023-11-18T04:06:08;95383.31;;;5.25;100.00
37068;BME280;22982;42.848;25.468;2023-11-18T04:11:11;95419.38;;;5.31;100.00
37068;BME280;22982;42.848;25.468;2023-11-18T04:16:19;95395.59;;;5.06;100.00
37068;BME280;22982;42.848;25.468;2023-11-18T04:21:21;95414.13;;;4.99;100.00
37068;BME280;22982;42.848;25.468;2023-11-18T04:26:24;95414.13;;;4.99;100.00
37068;BME280;22982;42.848;25.468;2023-11-18T04:31:27;95412.41;;;4.83;100.00
37068;BME280;22982;42.848;25.468;2023-11-18T04:36:29;95413.91;;;4.69;100.00
37068;BME280;22982;42.848;25.468;2023-11-18T04:41:34;95401.72;;;4.54;100.00
37068;BME280;22982;42.848;25.468;2023-11-18T04:46:36;95415.06;;;4.46;100.00
37068;BME280;22982;42.848;25.468;2023-11-18T04:51:39;95421.28;;;4.44;100.00
37068;BME280;22982;42.848;25.468;2023-11-18T04:56:43;95447.44;;;4.39;100.00
37068;BME280;22982;42.848;25.468;2023-11-18T05:01:46;95431.66;;;4.44;100.00
37068;BME280;22982;42.848;25.468;2023-11-18T05:06:50;95424.31;;;4.34;100.00
37068;BME280;22982;42.848;25.468;2023-11-18T05:11:53;95415.03;;;4.30;100.00
37068;BME280;22982;42.848;25.468;2023-11-18T05:16:57;95435.28;;;4.22;100.00
37068;BME280;22982;42.848;25.468;2023-11-18T05:21:59;95447.81;;;4.14;100.00
37068;BME280;22982;42.848;25.468;2023-11-18T05:27:03;95436.50;;;4.15;100.00
37068;BME280;22982;42.848;25.468;2023-11-18T05:32:05;95408.41;;;4.06;100.00
37068;BME280;22982;42.848;25.468;2023-11-18T05:37:08;95419.31;;;3.95;100.00
37068;BME280;22982;42.848;25.468;2023-11-18T05:42:11;95445.03;;;3.99;100.00
37068;BME280;22982;42.848;25.468;2023-11-18T05:47:14;95441.81;;;3.94;100.00
37068;BME280;22982;42.848;25.468;2023-11-18T05:52:17;95435.69;;;3.95;100.00
37068;BME280;22982;42.848;25.468;2023-11-18T05:57:19;95481.44;;;4.15;100.00
37068;BME280;22982;42.848;25.468;2023-11-18T06:02:24;95468.19;;;3.85;100.00
37068;BME280;22982;42.848;25.468;2023-11-18T06:07:27;95458.28;;;3.93;100.00
37068;BME280;22982;42.848;25.468;2023-11-18T06:12:31;95432.06;;;3.99;100.00
37068;BME280;22982;42.848;25.468;2023-11-18T06:17:33;95423.22;;;4.03;100.00
37068;BME280;22982;42.848;25.468;2023-11-18T06:22:37;95415.13;;;4.10;100.00
37068;BME280;22982;42.848;25.468;2023-11-18T06:27:39;95449.63;;;4.12;100.00
37068;BME280;22982;42.848;25.468;2023-11-18T06:32:42;95448.19;;;4.24;100.00
37068;BME280;22982;42.848;25.468;2023-11-18T06:37:45;95424.75;;;4.08;100.00
37068;BME280;22982;42.848;25.468;2023-11-18T06:42:47;95425.00;;;4.20;100.00
37068;BME280;22982;42.848;25.468;2023-11-18T06:47:51;95441.78;;;4.13;100.00
37068;BME280;22982;42.848;25.468;2023-11-18T06:52:53;95462.94;;;4.23;100.00
37068;BME280;22982;42.848;25.468;2023-11-18T06:57:56;95433.09;;;4.14;100.00
37068;BME280;22982;42.848;25.468;2023-11-18T07:02:59;95429.50;;;4.17;100.00
37068;BME280;22982;42.848;25.468;2023-11-18T07:08:04;95437.63;;;4.28;100.00
37068;BME280;22982;42.848;25.468;2023-11-18T07:13:06;95432.25;;;4.14;100.00
37068;BME280;22982;42.848;25.468;2023-11-18T07:18:13;95433.63;;;4.21;100.00
37068;BME280;22982;42.848;25.468;2023-11-18T07:23:15;95404.47;;;4.16;100.00
37068;BME280;22982;42.848;25.468;2023-11-18T07:28:20;95399.91;;;4.56;100.00
37068;BME280;22982;42.848;25.468;2023-11-18T07:33:22;95373.72;;;4.43;100.00
37068;BME280;22982;42.848;25.468;2023-11-18T07:38:25;95388.22;;;4.47;100.00
37068;BME280;22982;42.848;25.468;2023-11-18T07:43:29;95413.81;;;4.37;100.00
37068;BME280;22982;42.848;25.468;2023-11-18T07:48:33;95408.50;;;4.39;100.00
37068;BME280;22982;42.848;25.468;2023-11-18T07:53:36;95413.56;;;4.42;100.00
37068;BME280;22982;42.848;25.468;2023-11-18T07:58:42;95423.78;;;4.45;100.00
37068;BME280;22982;42.848;25.468;2023-11-18T08:03:47;95404.94;;;4.07;100.00
37068;BME280;22982;42.848;25.468;2023-11-18T08:08:50;95377.72;;;3.79;100.00
37068;BME280;22982;42.848;25.468;2023-11-18T08:13:54;95411.25;;;4.18;100.00
37068;BME280;22982;42.848;25.468;2023-11-18T08:18:58;95398.44;;;4.33;100.00
37068;BME280;22982;42.848;25.468;2023-11-18T08:24:00;95421.97;;;4.47;100.00
37068;BME280;22982;42.848;25.468;2023-11-18T08:29:03;95419.91;;;4.54;100.00
37068;BME280;22982;42.848;25.468;2023-11-18T08:34:07;95388.97;;;4.67;100.00
37068;BME280;22982;42.848;25.468;2023-11-18T08:39:10;95417.06;;;4.76;100.00
37068;BME280;22982;42.848;25.468;2023-11-18T08:44:13;95399.44;;;4.30;100.00
37068;BME280;22982;42.848;25.468;2023-11-18T08:49:25;95409.50;;;4.71;100.00
37068;BME280;22982;42.848;25.468;2023-11-18T08:54:27;95412.34;;;4.67;100.00
37068;BME280;22982;42.848;25.468;2023-11-18T08:59:54;95418.47;;;4.48;100.00
37068;BME280;22982;42.848;25.468;2023-11-18T09:05:00;95445.25;;;4.66;100.00
37068;BME280;22982;42.848;25.468;2023-11-18T09:10:09;95438.38;;;4.48;100.00
37068;BME280;22982;42.848;25.468;2023-11-18T09:15:11;95434.19;;;4.45;100.00
37068;BME280;22982;42.848;25.468;2023-11-18T09:20:20;95423.84;;;4.26;100.00
37068;BME280;22982;42.848;25.468;2023-11-18T09:25:24;95433.34;;;4.45;100.00
37068;BME280;22982;42.848;25.468;2023-11-18T09:30:27;95410.00;;;4.45;100.00
37068;BME280;22982;42.848;25.468;2023-11-18T09:35:31;95420.38;;;4.45;100.00
37068;BME280;22982;42.848;25.468;2023-11-18T09:40:39;95428.00;;;4.30;100.00
37068;BME280;22982;42.848;25.468;2023-11-18T09:45:46;95396.69;;;4.33;100.00
37068;BME280;22982;42.848;25.468;2023-11-18T09:50:51;95409.50;;;4.01;100.00
37068;BME280;22982;42.848;25.468;2023-11-18T09:56:07;95427.28;;;4.09;100.00
37068;BME280;22982;42.848;25.468;2023-11-18T10:01:21;95421.84;;;3.96;100.00
37068;BME280;22982;42.848;25.468;2023-11-18T10:06:25;95415.75;;;4.15;100.00
37068;BME280;22982;42.848;25.468;2023-11-18T10:11:30;95423.38;;;4.00;100.00
37068;BME280;22982;42.848;25.468;2023-11-18T10:16:38;95415.56;;;4.00;100.00
37068;BME280;22982;42.848;25.468;2023-11-18T10:21:41;95428.84;;;3.94;100.00
37068;BME280;22982;42.848;25.468;2023-11-18T10:26:44;95435.25;;;4.05;100.00
37068;BME280;22982;42.848;25.468;2023-11-18T10:31:47;95419.19;;;3.98;100.00
37068;BME280;22982;42.848;25.468;2023-11-18T10:37:00;95404.50;;;3.79;100.00
37068;BME280;22982;42.848;25.468;2023-11-18T10:42:06;95430.06;;;4.05;100.00
37068;BME280;22982;42.848;25.468;2023-11-18T10:47:10;95428.50;;;3.83;100.00
37068;BME280;22982;42.848;25.468;2023-11-18T10:52:17;95410.78;;;3.74;100.00
37068;BME280;22982;42.848;25.468;2023-11-18T10:57:22;95410.88;;;3.53;100.00
37068;BME280;22982;42.848;25.468;2023-11-18T11:02:31;95385.09;;;3.50;100.00
37068;BME280;22982;42.848;25.468;2023-11-18T11:07:42;95426.66;;;3.68;100.00
37068;BME280;22982;42.848;25.468;2023-11-18T11:12:50;95421.31;;;3.52;100.00
37068;BME280;22982;42.848;25.468;2023-11-18T11:18:02;95426.44;;;3.53;100.00
37068;BME280;22982;42.848;25.468;2023-11-18T11:34:06;95423.44;;;3.24;100.00
37068;BME280;22982;42.848;25.468;2023-11-18T11:39:13;95416.13;;;3.14;100.00
37068;BME280;22982;42.848;25.468;2023-11-18T11:44:31;95409.69;;;3.22;100.00
37068;BME280;22982;42.848;25.468;2023-11-18T11:49:52;95418.09;;;3.28;100.00
37068;BME280;22982;42.848;25.468;2023-11-18T12:00:25;95407.94;;;3.23;100.00
37068;BME280;22982;42.848;25.468;2023-11-18T12:05:36;95417.88;;;3.13;100.00
37068;BME280;22982;42.848;25.468;2023-11-18T12:10:54;95413.59;;;3.12;100.00
37068;BME280;22982;42.848;25.468;2023-11-18T12:15:58;95426.38;;;3.17;100.00
37068;BME280;22982;42.848;25.468;2023-11-18T12:21:07;95418.25;;;3.05;100.00
37068;BME280;22982;42.848;25.468;2023-11-18T12:26:38;95413.59;;;2.93;100.00
37068;BME280;22982;42.848;25.468;2023-11-18T12:31:46;95417.06;;;2.92;100.00
37068;BME280;22982;42.848;25.468;2023-11-18T12:37:24;95417.88;;;2.74;100.00
37068;BME280;22982;42.848;25.468;2023-11-18T12:47:53;95442.28;;;2.47;100.00
37068;BME280;22982;42.848;25.468;2023-11-18T12:52:58;95459.22;;;2.55;100.00
37068;BME280;22982;42.848;25.468;2023-11-18T12:58:00;95429.72;;;2.18;100.00
37068;BME280;22982;42.848;25.468;2023-11-18T13:03:04;95449.78;;;2.11;100.00
37068;BME280;22982;42.848;25.468;2023-11-18T13:08:07;95435.63;;;1.99;100.00
37068;BME280;22982;42.848;25.468;2023-11-18T13:13:11;95460.75;;;1.96;100.00
37068;BME280;22982;42.848;25.468;2023-11-18T13:18:15;95458.91;;;1.99;100.00
37068;BME280;22982;42.848;25.468;2023-11-18T13:23:19;95477.22;;;1.93;100.00
37068;BME280;22982;42.848;25.468;2023-11-18T13:28:23;95473.13;;;2.09;100.00
37068;BME280;22982;42.848;25.468;2023-11-18T13:33:27;95478.09;;;1.94;100.00
37068;BME280;22982;42.848;25.468;2023-11-18T13:38:29;95468.94;;;1.85;100.00
37068;BME280;22982;42.848;25.468;2023-11-18T13:43:46;95502.00;;;1.99;100.00
37068;BME280;22982;42.848;25.468;2023-11-18T13:48:54;95509.31;;;2.09;100.00
37068;BME280;22982;42.848;25.468;2023-11-18T13:53:56;95468.28;;;1.80;100.00
37068;BME280;22982;42.848;25.468;2023-11-18T13:59:01;95481.56;;;1.92;100.00
37068;BME280;22982;42.848;25.468;2023-11-18T14:04:05;95496.09;;;1.95;100.00
37068;BME280;22982;42.848;25.468;2023-11-18T14:09:09;95492.63;;;1.96;100.00
37068;BME280;22982;42.848;25.468;2023-11-18T14:14:13;95505.75;;;2.14;100.00
37068;BME280;22982;42.848;25.468;2023-11-18T14:19:17;95536.16;;;2.29;100.00
37068;BME280;22982;42.848;25.468;2023-11-18T14:24:21;95502.50;;;2.08;100.00
37068;BME280;22982;42.848;25.468;2023-11-18T14:29:34;95524.97;;;2.06;100.00
37068;BME280;22982;42.848;25.468;2023-11-18T14:34:39;95511.84;;;1.89;100.00
37068;BME280;22982;42.848;25.468;2023-11-18T14:39:44;95518.81;;;1.87;100.00
37068;BME280;22982;42.848;25.468;2023-11-18T14:44:47;95552.19;;;1.93;100.00
37068;BME280;22982;42.848;25.468;2023-11-18T14:49:50;95539.16;;;1.96;100.00
37068;BME280;22982;42.848;25.468;2023-11-18T14:54:55;95549.34;;;2.01;100.00
37068;BME280;22982;42.848;25.468;2023-11-18T14:59:57;95561.53;;;1.97;100.00
37068;BME280;22982;42.848;25.468;2023-11-18T15:05:00;95570.28;;;1.93;100.00
37068;BME280;22982;42.848;25.468;2023-11-18T15:10:08;95558.50;;;1.86;100.00
37068;BME280;22982;42.848;25.468;2023-11-18T15:15:10;95560.59;;;1.76;100.00
37068;BME280;22982;42.848;25.468;2023-11-18T15:20:21;95570.63;;;1.84;100.00
37068;BME280;22982;42.848;25.468;2023-11-18T15:25:25;95573.91;;;1.89;100.00
37068;BME280;22982;42.848;25.468;2023-11-18T15:30:29;95567.06;;;1.88;100.00
37068;BME280;22982;42.848;25.468;2023-11-18T15:35:31;95575.00;;;2.05;100.00
37068;BME280;22982;42.848;25.468;2023-11-18T15:40:37;95571.88;;;1.97;100.00
37068;BME280;22982;42.848;25.468;2023-11-18T15:45:39;95580.41;;;1.99;100.00
37068;BME280;22982;42.848;25.468;2023-11-18T15:50:42;95583.44;;;2.10;100.00
37068;BME280;22982;42.848;25.468;2023-11-18T16:02:35;95588.25;;;2.20;100.00
37068;BME280;22982;42.848;25.468;2023-11-18T16:07:39;95563.41;;;2.16;100.00
37068;BME280;22982;42.848;25.468;2023-11-18T16:12:42;95584.41;;;2.30;100.00
37068;BME280;22982;42.848;25.468;2023-11-18T16:17:49;95589.47;;;2.33;100.00
37068;BME280;22982;42.848;25.468;2023-11-18T16:22:54;95611.38;;;2.46;100.00
37068;BME280;22982;42.848;25.468;2023-11-18T16:27:58;95619.88;;;2.50;100.00
37068;BME280;22982;42.848;25.468;2023-11-18T16:33:02;95610.28;;;2.52;100.00
37068;BME280;22982;42.848;25.468;2023-11-18T16:38:07;95619.66;;;2.55;100.00
37068;BME280;22982;42.848;25.468;2023-11-18T16:43:11;95623.06;;;2.57;100.00
37068;BME280;22982;42.848;25.468;2023-11-18T16:48:13;95608.25;;;2.60;100.00
37068;BME280;22982;42.848;25.468;2023-11-18T16:53:16;95631.34;;;2.65;100.00
37068;BME280;22982;42.848;25.468;2023-11-18T16:58:20;95635.50;;;2.47;100.00
37068;BME280;22982;42.848;25.468;2023-11-18T17:03:23;95621.94;;;2.40;100.00
37068;BME280;22982;42.848;25.468;2023-11-18T17:08:26;95656.25;;;2.45;100.00
37068;BME280;22982;42.848;25.468;2023-11-18T17:13:28;95671.78;;;2.45;100.00
37068;BME280;22982;42.848;25.468;2023-11-18T17:18:32;95645.00;;;2.24;100.00
37068;BME280;22982;42.848;25.468;2023-11-18T17:23:34;95656.56;;;2.38;100.00
37068;BME280;22982;42.848;25.468;2023-11-18T17:28:41;95675.50;;;2.38;100.00
37068;BME280;22982;42.848;25.468;2023-11-18T17:33:45;95677.56;;;2.30;100.00
37068;BME280;22982;42.848;25.468;2023-11-18T17:38:48;95667.53;;;2.21;100.00
37068;BME280;22982;42.848;25.468;2023-11-18T17:43:57;95672.00;;;2.17;100.00
37068;BME280;22982;42.848;25.468;2023-11-18T17:48:59;95710.72;;;2.19;100.00
37068;BME280;22982;42.848;25.468;2023-11-18T17:54:03;95705.63;;;2.17;100.00
37068;BME280;22982;42.848;25.468;2023-11-18T17:59:05;95691.47;;;2.02;100.00
37068;BME280;22982;42.848;25.468;2023-11-18T18:04:08;95701.66;;;2.07;100.00
37068;BME280;22982;42.848;25.468;2023-11-18T18:09:10;95697.50;;;2.03;100.00
37068;BME280;22982;42.848;25.468;2023-11-18T18:14:12;95703.63;;;2.00;100.00
37068;BME280;22982;42.848;25.468;2023-11-18T18:19:16;95701.59;;;2.08;100.00
37068;BME280;22982;42.848;25.468;2023-11-18T18:24:19;95701.72;;;2.05;100.00
37068;BME280;22982;42.848;25.468;2023-11-18T18:29:21;95704.63;;;1.96;100.00
37068;BME280;22982;42.848;25.468;2023-11-18T18:34:25;95719.25;;;1.97;100.00
37068;BME280;22982;42.848;25.468;2023-11-18T18:39:27;95730.72;;;1.90;100.00
37068;BME280;22982;42.848;25.468;2023-11-18T18:44:30;95725.78;;;1.82;100.00
37068;BME280;22982;42.848;25.468;2023-11-18T18:49:32;95765.72;;;1.99;100.00
37068;BME280;22982;42.848;25.468;2023-11-18T18:54:36;95748.22;;;1.82;100.00
37068;BME280;22982;42.848;25.468;2023-11-18T18:59:38;95757.03;;;1.76;100.00
37068;BME280;22982;42.848;25.468;2023-11-18T19:04:41;95775.91;;;1.78;100.00
37068;BME280;22982;42.848;25.468;2023-11-18T19:09:44;95766.94;;;1.63;100.00
37068;BME280;22982;42.848;25.468;2023-11-18T19:14:47;95790.94;;;1.67;100.00
37068;BME280;22982;42.848;25.468;2023-11-18T19:26:47;95782.34;;;1.66;100.00
37068;BME280;22982;42.848;25.468;2023-11-18T19:38:48;95783.03;;;1.45;100.00
37068;BME280;22982;42.848;25.468;2023-11-18T19:49:45;95791.09;;;1.36;100.00
37068;BME280;22982;42.848;25.468;2023-11-18T19:54:49;95784.44;;;1.28;100.00
37068;BME280;22982;42.848;25.468;2023-11-18T19:59:52;95792.47;;;1.46;100.00
37068;BME280;22982;42.848;25.468;2023-11-18T20:04:55;95807.78;;;1.52;100.00
37068;BME280;22982;42.848;25.468;2023-11-18T20:09:58;95771.19;;;1.39;100.00
37068;BME280;22982;42.848;25.468;2023-11-18T20:15:01;95781.25;;;1.47;100.00
37068;BME280;22982;42.848;25.468;2023-11-18T20:20:04;95785.72;;;1.42;100.00
37068;BME280;22982;42.848;25.468;2023-11-18T20:25:11;95798.88;;;1.34;100.00
37068;BME280;22982;42.848;25.468;2023-11-18T20:30:16;95795.41;;;1.35;100.00
37068;BME280;22982;42.848;25.468;2023-11-18T20:35:20;95819.44;;;1.37;100.00
37068;BME280;22982;42.848;25.468;2023-11-18T20:40:22;95807.06;;;1.20;100.00
37068;BME280;22982;42.848;25.468;2023-11-18T20:45:26;95818.97;;;1.24;100.00
37068;BME280;22982;42.848;25.468;2023-11-18T20:50:28;95812.50;;;1.11;100.00
37068;BME280;22982;42.848;25.468;2023-11-18T20:55:31;95817.47;;;1.17;100.00
37068;BME280;22982;42.848;25.468;2023-11-18T21:00:34;95799.44;;;1.15;100.00
37068;BME280;22982;42.848;25.468;2023-11-18T21:05:38;95811.84;;;1.32;100.00
37068;BME280;22982;42.848;25.468;2023-11-18T21:10:40;95786.94;;;1.30;100.00
37068;BME280;22982;42.848;25.468;2023-11-18T21:15:43;95801.59;;;1.29;100.00
37068;BME280;22982;42.848;25.468;2023-11-18T21:20:46;95791.59;;;1.19;100.00
37068;BME280;22982;42.848;25.468;2023-11-18T21:25:48;95796.22;;;1.09;100.00
37068;BME280;22982;42.848;25.468;2023-11-18T21:30:52;95808.81;;;1.20;100.00
37068;BME280;22982;42.848;25.468;2023-11-18T21:35:55;95810.81;;;1.10;100.00
37068;BME280;22982;42.848;25.468;2023-11-18T21:41:01;95795.44;;;1.07;100.00
37068;BME280;22982;42.848;25.468;2023-11-18T21:46:04;95810.59;;;1.18;100.00
37068;BME280;22982;42.848;25.468;2023-11-18T21:51:06;95803.47;;;1.24;100.00
37068;BME280;22982;42.848;25.468;2023-11-18T21:56:12;95837.59;;;1.36;100.00
37068;BME280;22982;42.848;25.468;2023-11-18T22:01:19;95828.84;;;1.40;100.00
37068;BME280;22982;42.848;25.468;2023-11-18T22:06:21;95821.13;;;1.38;100.00
37068;BME280;22982;42.848;25.468;2023-11-18T22:11:24;95833.31;;;1.34;100.00
37068;BME280;22982;42.848;25.468;2023-11-18T22:16:27;95849.69;;;1.33;100.00
37068;BME280;22982;42.848;25.468;2023-11-18T22:21:30;95843.13;;;1.23;100.00
37068;BME280;22982;42.848;25.468;2023-11-18T22:26:33;95852.97;;;1.39;100.00
37068;BME280;22982;42.848;25.468;2023-11-18T22:31:36;95849.50;;;1.40;100.00
37068;BME280;22982;42.848;25.468;2023-11-18T22:36:39;95875.47;;;1.35;100.00
37068;BME280;22982;42.848;25.468;2023-11-18T22:41:42;95823.75;;;1.08;100.00
37068;BME280;22982;42.848;25.468;2023-11-18T22:46:47;95845.78;;;1.20;100.00
37068;BME280;22982;42.848;25.468;2023-11-18T22:51:50;95861.16;;;1.25;100.00
37068;BME280;22982;42.848;25.468;2023-11-18T22:56:53;95881.06;;;1.21;100.00
37068;BME280;22982;42.848;25.468;2023-11-18T23:01:56;95861.38;;;1.17;100.00
37068;BME280;22982;42.848;25.468;2023-11-18T23:06:59;95877.31;;;1.31;100.00
37068;BME280;22982;42.848;25.468;2023-11-18T23:12:06;95882.31;;;1.38;100.00
37068;BME280;22982;42.848;25.468;2023-11-18T23:17:09;95858.72;;;1.20;100.00
37068;BME280;22982;42.848;25.468;2023-11-18T23:22:12;95898.84;;;1.32;100.00
37068;BME280;22982;42.848;25.468;2023-11-18T23:27:14;95925.34;;;1.37;100.00
37068;BME280;22982;42.848;25.468;2023-11-18T23:32:19;95904.91;;;1.29;100.00
37068;BME280;22982;42.848;25.468;2023-11-18T23:37:23;95901.34;;;1.33;100.00
37068;BME280;22982;42.848;25.468;2023-11-18T23:42:26;95922.00;;;1.33;100.00
37068;BME280;22982;42.848;25.468;2023-11-18T23:47:28;95930.03;;;1.24;100.00
37068;BME280;22982;42.848;25.468;2023-11-18T23:52:31;95898.50;;;1.13;100.00
37068;BME280;22982;42.848;25.468;2023-11-18T23:57:34;95916.47;;;1.18;100.00
